Terminal Aerodrome Forecast
Issued by NWS Sioux Falls, SD

Home | Current Version | Previous Version | Graphics & Text | Print | Product List | Glossary On
Versions: 1 2 3 4 5 6 7 8 9 10 11 12 13 14
000
FTUS43 KFSD 150500
TAFSUX
TAF
KSUX 150520Z 1506/1606 VRB03KT P6SM SKC
     FM151600 17008KT P6SM FEW080
     FM151900 17014G22KT P6SM SCT150
     FM160130 14013KT P6SM SCT150
     FM160400 14014KT P6SM SCT150 WS010/19041KT=

USA.gov is the U.S. government's official web portal to all federal, state and local government web resources and services.